Time;durP1;ratioP1;P1;durP2;ratioP2;P2;SDS_P1;SDS_P2;PMS_P1;PMS_P2;Temp;Humidity;BMP_temperature;BMP_pressure;BME280_temperature;BME280_humidity;BME280_pressure;Samples;Min_cycle;Max_cycle;Signal;HPM_P1;HPM_P2
2023/08/09 00:01:21;;;;;;;18.27;7.43;;;;;;;;;;5060900;28;20025;-72
2023/08/09 00:03:49;;;;;;;13.85;7.13;;;;;;;;;;5065761;28;21089;-73
2023/08/09 00:06:15;;;;;;;10.23;6.40;;;;;;;;;;5063614;28;20033;-73
2023/08/09 00:08:41;;;;;;;11.07;6.43;;;;;;;;;;5062134;28;20033;-73
2023/08/09 00:11:07;;;;;;;14.80;7.35;;;;;;;;;;5064217;28;20248;-73
2023/08/09 00:13:33;;;;;;;13.13;6.65;;;;;;;;;;5063016;28;20024;-73
2023/08/09 00:16:02;;;;;;;12.48;6.35;;;;;;;;;;5062934;28;20220;-72
2023/08/09 00:18:28;;;;;;;10.43;6.28;;;;;;;;;;5062455;28;20187;-73
2023/08/09 00:20:54;;;;;;;13.10;6.95;;;;;;;;;;5064183;28;20101;-73
2023/08/09 00:23:21;;;;;;;11.77;5.85;;;;;;;;;;5066124;28;20017;-73
2023/08/09 00:25:47;;;;;;;9.52;5.90;;;;;;;;;;5065492;28;20028;-73
2023/08/09 00:28:13;;;;;;;13.52;6.10;;;;;;;;;;5063510;28;20036;-73
2023/08/09 00:30:41;;;;;;;14.63;7.28;;;;;;;;;;5064694;28;20025;-72
2023/08/09 00:33:07;;;;;;;13.38;6.70;;;;;;;;;;5064987;28;20033;-72
2023/08/09 00:35:34;;;;;;;13.20;6.97;;;;;;;;;;5065314;28;21309;-73
2023/08/09 00:38:00;;;;;;;11.63;6.57;;;;;;;;;;5063714;28;20244;-72
2023/08/09 00:40:26;;;;;;;13.38;7.05;;;;;;;;;;5064981;28;20084;-72
2023/08/09 00:42:52;;;;;;;12.75;6.63;;;;;;;;;;5064823;28;20056;-72
2023/08/09 00:45:18;;;;;;;14.88;7.40;;;;;;;;;;5065966;28;20013;-72
2023/08/09 00:47:46;;;;;;;14.73;6.72;;;;;;;;;;5064670;28;20033;-72
2023/08/09 00:50:12;;;;;;;14.68;7.75;;;;;;;;;;5063726;28;20056;-72
2023/08/09 00:52:39;;;;;;;12.93;7.32;;;;;;;;;;5064274;28;20053;-72
2023/08/09 00:55:07;;;;;;;13.95;7.05;;;;;;;;;;5063443;28;20025;-72
2023/08/09 00:57:36;;;;;;;14.73;7.35;;;;;;;;;;5063616;28;20052;-72
2023/08/09 01:00:04;;;;;;;13.85;7.53;;;;;;;;;;5063433;28;20052;-73
2023/08/09 01:02:30;;;;;;;14.98;8.63;;;;;;;;;;5061774;28;20089;-72
2023/08/09 01:04:57;;;;;;;14.52;8.20;;;;;;;;;;5062650;28;20032;-73
2023/08/09 01:07:23;;;;;;;15.55;8.43;;;;;;;;;;5064646;28;20040;-73
2023/08/09 01:10:30;;;;;;;20.27;8.00;;;;;;;;;;5063075;28;20025;-73
2023/08/09 01:12:59;;;;;;;21.40;8.35;;;;;;;;;;5025731;28;20109;-72
2023/08/09 01:15:25;;;;;;;17.35;8.55;;;;;;;;;;5040925;28;20097;-72
2023/08/09 01:17:53;;;;;;;20.23;9.00;;;;;;;;;;5030988;28;20057;-71
2023/08/09 01:20:20;;;;;;;20.40;9.15;;;;;;;;;;5026063;28;20078;-72
2023/08/09 01:22:51;;;;;;;16.08;8.48;;;;;;;;;;5041539;28;20057;-72
2023/08/09 01:25:18;;;;;;;17.20;8.75;;;;;;;;;;5026204;28;20029;-72
2023/08/09 01:27:46;;;;;;;15.43;9.38;;;;;;;;;;5035071;28;20018;-74
2023/08/09 01:30:15;;;;;;;15.70;8.88;;;;;;;;;;5028527;28;20034;-72
2023/08/09 01:32:41;;;;;;;24.85;10.18;;;;;;;;;;5028050;28;20033;-72
2023/08/09 01:35:07;;;;;;;21.80;10.27;;;;;;;;;;5044920;28;20037;-73
2023/08/09 01:37:36;;;;;;;19.35;8.88;;;;;;;;;;5029257;28;20029;-73
2023/08/09 01:40:08;;;;;;;18.35;10.10;;;;;;;;;;5028992;28;20056;-72
2023/08/09 01:42:38;;;;;;;16.30;9.98;;;;;;;;;;5045976;28;20102;-73
2023/08/09 01:45:08;;;;;;;24.83;10.95;;;;;;;;;;5065393;28;20036;-72
2023/08/09 01:47:36;;;;;;;18.95;10.05;;;;;;;;;;5071423;28;20071;-72
2023/08/09 01:50:04;;;;;;;17.08;9.57;;;;;;;;;;5066238;28;20040;-72
2023/08/09 01:52:30;;;;;;;27.25;10.30;;;;;;;;;;5067272;28;20028;-72
2023/08/09 01:54:56;;;;;;;18.17;5.03;;;;;;;;;;5066234;28;20033;-73
2023/08/09 01:57:22;;;;;;;12.55;4.70;;;;;;;;;;5083473;28;20017;-72
2023/08/09 01:59:50;;;;;;;7.18;3.80;;;;;;;;;;5068299;28;20028;-72
2023/08/09 02:02:16;;;;;;;7.82;4.63;;;;;;;;;;5069969;28;20044;-72
2023/08/09 02:04:42;;;;;;;6.45;3.40;;;;;;;;;;5068744;28;20059;-72
2023/08/09 02:07:09;;;;;;;5.73;4.17;;;;;;;;;;5068378;28;20021;-72
2023/08/09 02:09:37;;;;;;;7.18;4.20;;;;;;;;;;5066638;28;20028;-71
2023/08/09 02:12:03;;;;;;;7.38;4.80;;;;;;;;;;5067501;28;20033;-72
2023/08/09 02:14:32;;;;;;;9.60;5.10;;;;;;;;;;5067686;28;20024;-72
2023/08/09 02:16:59;;;;;;;20.50;6.15;;;;;;;;;;5068075;28;20041;-72
2023/08/09 02:19:25;;;;;;;9.90;6.27;;;;;;;;;;5065805;28;20029;-73
2023/08/09 02:21:51;;;;;;;11.87;6.50;;;;;;;;;;5066959;28;20029;-72
2023/08/09 02:24:17;;;;;;;13.90;7.30;;;;;;;;;;5081060;28;20089;-72
2023/08/09 02:26:43;;;;;;;12.73;7.53;;;;;;;;;;5066960;28;20021;-72
2023/08/09 02:29:09;;;;;;;15.23;8.37;;;;;;;;;;5068810;28;20029;-71
2023/08/09 02:31:35;;;;;;;29.02;10.50;;;;;;;;;;5068553;28;20053;-72
2023/08/09 02:34:02;;;;;;;22.47;10.97;;;;;;;;;;5065090;28;20031;-72
2023/08/09 02:36:28;;;;;;;37.43;14.63;;;;;;;;;;5068247;28;20027;-72
2023/08/09 02:38:54;;;;;;;32.30;14.07;;;;;;;;;;5068201;28;20045;-72
2023/08/09 02:41:20;;;;;;;41.93;15.80;;;;;;;;;;5067781;28;20036;-72
2023/08/09 02:43:46;;;;;;;35.00;14.33;;;;;;;;;;5069757;28;20035;-72
2023/08/09 02:46:15;;;;;;;28.97;14.40;;;;;;;;;;5067421;28;20037;-72
2023/08/09 02:48:41;;;;;;;34.00;14.43;;;;;;;;;;5065468;28;20040;-72
2023/08/09 02:51:07;;;;;;;37.13;15.73;;;;;;;;;;5067843;28;20032;-73
2023/08/09 02:53:37;;;;;;;55.50;20.10;;;;;;;;;;5063781;28;20017;-72
2023/08/09 02:56:08;;;;;;;44.05;16.40;;;;;;;;;;5067401;28;20029;-72
2023/08/09 02:58:37;;;;;;;33.20;15.53;;;;;;;;;;5065243;28;20037;-73
2023/08/09 03:01:03;;;;;;;38.20;15.27;;;;;;;;;;5064729;28;20083;-72
2023/08/09 03:03:29;;;;;;;28.77;12.60;;;;;;;;;;5067978;28;20032;-72
2023/08/09 03:05:55;;;;;;;35.85;15.10;;;;;;;;;;5064720;28;20017;-72
2023/08/09 03:08:21;;;;;;;31.30;12.82;;;;;;;;;;5071333;28;20030;-72
2023/08/09 03:10:47;;;;;;;36.72;13.50;;;;;;;;;;5064928;28;20049;-72
2023/08/09 03:13:13;;;;;;;34.53;14.30;;;;;;;;;;5064772;28;20059;-72
2023/08/09 03:15:41;;;;;;;35.22;13.57;;;;;;;;;;5065981;28;20037;-72
2023/08/09 03:18:07;;;;;;;28.10;13.00;;;;;;;;;;5066139;28;20097;-71
2023/08/09 03:20:35;;;;;;;23.23;9.95;;;;;;;;;;5066381;28;20021;-72
2023/08/09 03:23:01;;;;;;;29.63;12.97;;;;;;;;;;5063251;28;20021;-71
2023/08/09 03:25:27;;;;;;;25.00;11.00;;;;;;;;;;5065314;28;20025;-71
2023/08/09 03:27:53;;;;;;;32.30;11.90;;;;;;;;;;5064614;28;20041;-72
2023/08/09 03:30:19;;;;;;;26.17;11.77;;;;;;;;;;5064313;28;20021;-72
2023/08/09 03:32:45;;;;;;;35.20;10.60;;;;;;;;;;5064290;28;20040;-72
2023/08/09 03:35:11;;;;;;;20.23;9.30;;;;;;;;;;5070931;28;20029;-72
2023/08/09 03:37:37;;;;;;;16.90;9.10;;;;;;;;;;5064684;28;20025;-72
2023/08/09 03:40:06;;;;;;;22.80;9.10;;;;;;;;;;5066995;28;20033;-72
2023/08/09 03:42:32;;;;;;;25.15;10.25;;;;;;;;;;5064971;28;20059;-72
2023/08/09 03:44:58;;;;;;;20.90;8.93;;;;;;;;;;5067180;28;20029;-72
2023/08/09 03:47:24;;;;;;;19.37;9.03;;;;;;;;;;5065414;28;20059;-71
2023/08/09 03:49:50;;;;;;;22.23;7.57;;;;;;;;;;5070325;28;20027;-72
2023/08/09 03:52:19;;;;;;;22.87;9.07;;;;;;;;;;5068415;28;20032;-72
2023/08/09 03:54:45;;;;;;;26.40;8.90;;;;;;;;;;5067269;28;20072;-72
2023/08/09 03:57:11;;;;;;;17.67;8.50;;;;;;;;;;5067418;28;20028;-71
2023/08/09 03:59:39;;;;;;;33.90;10.52;;;;;;;;;;5065320;28;20084;-72
2023/08/09 04:02:06;;;;;;;26.20;9.80;;;;;;;;;;5064370;28;20013;-71
2023/08/09 04:04:34;;;;;;;26.17;8.90;;;;;;;;;;5065173;28;20013;-72
2023/08/09 04:07:00;;;;;;;31.95;11.40;;;;;;;;;;5065680;28;20018;-72
2023/08/09 04:09:26;;;;;;;22.70;8.45;;;;;;;;;;5065158;28;20029;-72
2023/08/09 04:11:53;;;;;;;18.42;9.05;;;;;;;;;;5065908;28;20052;-71
2023/08/09 04:14:19;;;;;;;21.02;9.68;;;;;;;;;;5068857;28;20085;-71
2023/08/09 04:16:46;;;;;;;26.23;10.10;;;;;;;;;;5064567;28;20021;-72
2023/08/09 04:19:12;;;;;;;24.67;10.35;;;;;;;;;;5063735;28;20065;-72
2023/08/09 04:21:40;;;;;;;29.65;10.35;;;;;;;;;;5064131;28;20017;-72
2023/08/09 04:24:06;;;;;;;31.70;11.75;;;;;;;;;;5062285;28;20029;-72
2023/08/09 04:26:32;;;;;;;34.65;11.48;;;;;;;;;;5065294;28;20060;-72
2023/08/09 04:28:58;;;;;;;21.98;10.93;;;;;;;;;;5064802;28;20039;-72
2023/08/09 04:31:27;;;;;;;29.73;11.00;;;;;;;;;;5068443;28;20025;-73
2023/08/09 04:33:53;;;;;;;24.53;11.37;;;;;;;;;;5065711;28;20029;-72
2023/08/09 04:36:19;;;;;;;26.73;11.93;;;;;;;;;;5070033;28;20036;-72
2023/08/09 04:38:45;;;;;;;33.60;13.15;;;;;;;;;;5065601;28;20032;-72
2023/08/09 04:41:11;;;;;;;32.80;12.07;;;;;;;;;;5070661;28;20028;-72
2023/08/09 04:43:39;;;;;;;47.22;14.43;;;;;;;;;;5067053;28;20029;-72
2023/08/09 04:46:07;;;;;;;40.10;13.00;;;;;;;;;;5064203;28;20017;-72
2023/08/09 04:48:36;;;;;;;39.47;13.60;;;;;;;;;;5063847;28;20032;-72
2023/08/09 04:51:04;;;;;;;35.65;12.90;;;;;;;;;;5064829;28;20028;-72
2023/08/09 04:53:30;;;;;;;36.47;13.18;;;;;;;;;;5065862;28;20025;-72
2023/08/09 04:55:56;;;;;;;42.03;12.70;;;;;;;;;;5067249;28;20037;-72
2023/08/09 04:58:24;;;;;;;31.25;12.48;;;;;;;;;;5068833;28;20045;-72
2023/08/09 05:00:50;;;;;;;25.27;10.98;;;;;;;;;;5064443;28;21006;-72
2023/08/09 05:03:18;;;;;;;30.83;10.65;;;;;;;;;;5064903;28;20017;-72
2023/08/09 05:05:44;;;;;;;31.05;11.80;;;;;;;;;;5068361;28;20033;-72
2023/08/09 05:08:10;;;;;;;36.42;12.68;;;;;;;;;;5068157;28;20039;-72
2023/08/09 05:10:36;;;;;;;30.05;13.30;;;;;;;;;;5067525;28;20483;-72
2023/08/09 05:13:02;;;;;;;34.60;13.95;;;;;;;;;;5069690;28;20044;-72
2023/08/09 05:15:28;;;;;;;36.75;14.32;;;;;;;;;;5067752;28;20013;-72
2023/08/09 05:17:57;;;;;;;39.22;16.15;;;;;;;;;;5069435;28;20048;-72
2023/08/09 05:20:23;;;;;;;31.30;13.25;;;;;;;;;;5066362;28;20037;-72
2023/08/09 05:22:51;;;;;;;41.92;15.18;;;;;;;;;;5067925;28;20025;-72
2023/08/09 05:25:20;;;;;;;35.95;14.15;;;;;;;;;;5069108;28;20025;-72
2023/08/09 05:27:48;;;;;;;35.88;14.43;;;;;;;;;;5069399;28;20029;-72
2023/08/09 05:30:14;;;;;;;29.33;13.27;;;;;;;;;;5067508;28;20024;-72
2023/08/09 05:32:40;;;;;;;33.05;14.73;;;;;;;;;;5067682;28;20021;-72
2023/08/09 05:35:06;;;;;;;29.95;13.30;;;;;;;;;;5067058;28;20029;-73
2023/08/09 05:37:35;;;;;;;26.83;12.10;;;;;;;;;;5065552;28;20025;-73
2023/08/09 05:40:01;;;;;;;28.83;14.23;;;;;;;;;;5068457;28;20040;-72
2023/08/09 05:42:27;;;;;;;28.52;12.70;;;;;;;;;;5065386;28;20041;-72
2023/08/09 05:44:53;;;;;;;24.45;11.18;;;;;;;;;;5067516;28;20068;-72
2023/08/09 05:47:19;;;;;;;20.98;10.15;;;;;;;;;;5066319;28;20024;-72
2023/08/09 05:49:44;;;;;;;14.40;8.63;;;;;;;;;;5067404;28;20025;-72
2023/08/09 05:52:10;;;;;;;18.45;9.30;;;;;;;;;;5067014;28;21296;-72
2023/08/09 05:54:37;;;;;;;23.92;11.45;;;;;;;;;;5065776;28;20036;-72
2023/08/09 05:57:03;;;;;;;19.05;11.10;;;;;;;;;;5067173;28;20032;-72
2023/08/09 05:59:30;;;;;;;21.75;11.27;;;;;;;;;;5065607;28;20075;-72
2023/08/09 06:01:58;;;;;;;22.45;11.63;;;;;;;;;;5067689;28;20979;-72
2023/08/09 06:04:24;;;;;;;19.23;12.13;;;;;;;;;;5066564;28;20081;-72
2023/08/09 06:06:53;;;;;;;20.63;11.52;;;;;;;;;;5068068;28;20051;-73
2023/08/09 06:09:19;;;;;;;18.52;11.90;;;;;;;;;;5066121;28;20044;-72
2023/08/09 06:11:45;;;;;;;16.65;11.32;;;;;;;;;;5065458;28;20064;-72
2023/08/09 06:14:13;;;;;;;25.98;12.00;;;;;;;;;;5082873;28;20080;-73
2023/08/09 06:16:39;;;;;;;15.90;10.43;;;;;;;;;;5067194;28;20045;-72
2023/08/09 06:19:08;;;;;;;23.42;11.88;;;;;;;;;;5066692;28;20069;-73
2023/08/09 06:21:34;;;;;;;19.65;11.98;;;;;;;;;;5066358;28;20021;-72
2023/08/09 06:24:00;;;;;;;16.73;11.45;;;;;;;;;;5065945;28;21166;-72
2023/08/09 06:26:26;;;;;;;24.63;11.88;;;;;;;;;;5068328;28;20037;-72
2023/08/09 06:28:52;;;;;;;26.98;15.30;;;;;;;;;;5067217;28;20036;-72
2023/08/09 06:31:18;;;;;;;24.02;15.57;;;;;;;;;;5067166;28;20037;-72
2023/08/09 06:33:44;;;;;;;25.77;16.25;;;;;;;;;;5063740;28;20089;-74
2023/08/09 06:36:10;;;;;;;27.88;15.77;;;;;;;;;;5063700;28;20018;-72
2023/08/09 06:38:36;;;;;;;28.42;17.50;;;;;;;;;;5065495;28;20033;-73
2023/08/09 06:41:02;;;;;;;24.88;15.55;;;;;;;;;;5065305;28;20036;-73
2023/08/09 06:43:29;;;;;;;20.50;14.43;;;;;;;;;;5064582;28;20029;-73
2023/08/09 06:45:57;;;;;;;27.05;17.25;;;;;;;;;;5063702;28;20029;-73
2023/08/09 06:48:29;;;;;;;29.83;17.95;;;;;;;;;;5069733;28;20018;-72
2023/08/09 06:50:55;;;;;;;27.00;18.13;;;;;;;;;;5064854;28;20021;-73
2023/08/09 06:53:23;;;;;;;22.25;16.08;;;;;;;;;;5064148;28;20013;-72
2023/08/09 06:55:50;;;;;;;23.00;15.18;;;;;;;;;;5065292;28;20029;-73
2023/08/09 06:58:15;;;;;;;27.85;18.85;;;;;;;;;;5069381;28;20028;-72
2023/08/09 07:00:41;;;;;;;29.60;19.85;;;;;;;;;;5063894;28;20072;-73
2023/08/09 07:03:07;;;;;;;27.52;17.20;;;;;;;;;;5065676;28;20085;-73
2023/08/09 07:05:36;;;;;;;25.88;18.88;;;;;;;;;;5064726;28;20032;-74
2023/08/09 07:08:05;;;;;;;24.55;18.02;;;;;;;;;;5064099;28;20028;-73
2023/08/09 07:10:31;;;;;;;21.38;14.68;;;;;;;;;;5063482;28;20039;-72
2023/08/09 07:12:57;;;;;;;15.93;12.27;;;;;;;;;;5064794;28;20028;-73
2023/08/09 07:15:23;;;;;;;16.02;12.70;;;;;;;;;;5064615;28;20053;-72
2023/08/09 07:17:49;;;;;;;17.45;12.70;;;;;;;;;;5070192;28;20086;-73
2023/08/09 07:20:15;;;;;;;16.27;11.98;;;;;;;;;;5065797;28;20030;-73
2023/08/09 07:22:42;;;;;;;16.98;13.00;;;;;;;;;;5064634;28;20021;-73
2023/08/09 07:25:09;;;;;;;18.50;13.77;;;;;;;;;;5064684;28;20021;-73
2023/08/09 07:27:35;;;;;;;22.02;15.90;;;;;;;;;;5064261;28;20114;-73
2023/08/09 07:30:01;;;;;;;20.77;14.82;;;;;;;;;;5065374;28;20043;-73
2023/08/09 07:32:27;;;;;;;21.13;16.20;;;;;;;;;;5065001;28;20033;-73
2023/08/09 07:34:55;;;;;;;22.98;17.52;;;;;;;;;;5063970;28;20056;-74
2023/08/09 07:37:24;;;;;;;24.70;18.83;;;;;;;;;;5064041;28;20120;-73
2023/08/09 07:39:50;;;;;;;21.55;16.67;;;;;;;;;;5063244;28;20025;-73
2023/08/09 07:42:16;;;;;;;22.88;17.33;;;;;;;;;;5060297;28;20047;-74
2023/08/09 07:44:42;;;;;;;22.35;18.27;;;;;;;;;;5059597;28;20025;-74
2023/08/09 07:47:10;;;;;;;25.55;19.52;;;;;;;;;;5061730;28;20413;-72
2023/08/09 07:49:36;;;;;;;28.83;21.00;;;;;;;;;;5060670;28;20013;-72
2023/08/09 07:52:02;;;;;;;28.90;21.45;;;;;;;;;;5059038;28;20085;-77
2023/08/09 07:54:28;;;;;;;25.42;21.33;;;;;;;;;;5060516;28;20124;-75
2023/08/09 07:56:54;;;;;;;23.38;19.02;;;;;;;;;;5057744;28;20032;-73
2023/08/09 07:59:20;;;;;;;27.10;20.33;;;;;;;;;;5063208;28;20039;-73
2023/08/09 08:01:46;;;;;;;18.92;15.65;;;;;;;;;;5063809;28;20151;-72
2023/08/09 08:04:12;;;;;;;17.05;13.07;;;;;;;;;;5066090;28;20044;-72
2023/08/09 08:06:38;;;;;;;16.77;12.07;;;;;;;;;;5060065;28;20020;-73
2023/08/09 08:09:04;;;;;;;14.20;12.63;;;;;;;;;;5064969;28;20029;-72
2023/08/09 08:11:31;;;;;;;15.20;10.93;;;;;;;;;;5065463;28;20016;-73
2023/08/09 08:13:58;;;;;;;12.65;9.90;;;;;;;;;;5061368;28;20230;-72
2023/08/09 08:16:24;;;;;;;13.40;9.73;;;;;;;;;;5063217;28;20045;-73
2023/08/09 08:18:52;;;;;;;10.90;9.68;;;;;;;;;;5063448;28;20044;-72
2023/08/09 08:21:18;;;;;;;10.27;8.05;;;;;;;;;;5063913;28;20013;-73
2023/08/09 08:23:46;;;;;;;13.65;8.02;;;;;;;;;;5065531;28;20044;-73
2023/08/09 08:26:13;;;;;;;11.05;8.88;;;;;;;;;;5057778;28;20044;-74
2023/08/09 08:28:38;;;;;;;13.23;10.30;;;;;;;;;;5062378;28;20042;-77
2023/08/09 08:31:05;;;;;;;12.63;9.15;;;;;;;;;;5062715;28;20097;-73
2023/08/09 08:33:33;;;;;;;12.45;9.02;;;;;;;;;;5060674;28;20045;-76
2023/08/09 08:35:59;;;;;;;9.98;8.20;;;;;;;;;;5064027;28;20029;-76
2023/08/09 08:38:28;;;;;;;9.55;8.43;;;;;;;;;;5068456;28;20065;-73
2023/08/09 08:40:56;;;;;;;10.75;9.00;;;;;;;;;;5064254;28;20025;-75
2023/08/09 08:43:23;;;;;;;9.10;8.18;;;;;;;;;;5099403;22;20454;-73
2023/08/09 08:45:51;;;;;;;8.60;7.72;;;;;;;;;;5026824;28;20097;-75
2023/08/09 08:48:21;;;;;;;9.82;8.20;;;;;;;;;;5024615;28;20062;-76
2023/08/09 08:50:50;;;;;;;13.18;8.50;;;;;;;;;;5018586;28;20041;-78
2023/08/09 08:53:17;;;;;;;8.57;7.07;;;;;;;;;;5016767;28;20055;-75
2023/08/09 08:55:43;;;;;;;8.10;7.00;;;;;;;;;;5011642;28;20091;-78
2023/08/09 08:58:11;;;;;;;9.65;7.68;;;;;;;;;;5015650;28;20163;-78
2023/08/09 09:00:38;;;;;;;8.52;6.88;;;;;;;;;;5029104;28;20103;-76
2023/08/09 09:03:04;;;;;;;10.20;6.70;;;;;;;;;;5011217;28;20041;-77
2023/08/09 09:05:30;;;;;;;10.55;8.15;;;;;;;;;;5007573;28;20033;-78
2023/08/09 09:07:59;;;;;;;11.55;7.97;;;;;;;;;;5035654;28;20057;-73
2023/08/09 09:10:27;;;;;;;10.30;7.57;;;;;;;;;;5044076;28;20088;-79
2023/08/09 09:12:54;;;;;;;8.65;7.22;;;;;;;;;;5042625;28;20537;-74
2023/08/09 09:15:20;;;;;;;10.07;6.60;;;;;;;;;;5045326;28;20033;-74
2023/08/09 09:17:48;;;;;;;6.93;6.13;;;;;;;;;;5036218;28;20085;-73
2023/08/09 09:20:18;;;;;;;9.65;7.43;;;;;;;;;;5037098;28;20037;-73
2023/08/09 09:22:44;;;;;;;7.95;7.13;;;;;;;;;;5027173;28;20099;-73
2023/08/09 09:25:18;;;;;;;8.57;7.38;;;;;;;;;;5036615;28;20369;-73
2023/08/09 09:27:46;;;;;;;10.23;7.55;;;;;;;;;;5037610;28;20018;-75
2023/08/09 09:30:13;;;;;;;7.57;5.70;;;;;;;;;;5054796;28;20041;-72
2023/08/09 09:32:43;;;;;;;7.43;6.30;;;;;;;;;;5036645;28;20044;-73
2023/08/09 09:35:11;;;;;;;6.57;5.88;;;;;;;;;;5036973;28;20028;-75
2023/08/09 09:37:37;;;;;;;5.93;5.18;;;;;;;;;;5054762;28;20076;-73
2023/08/09 09:40:10;;;;;;;10.52;5.43;;;;;;;;;;5036014;28;20037;-73
2023/08/09 09:42:36;;;;;;;6.22;5.25;;;;;;;;;;5026362;28;20052;-74
2023/08/09 09:45:07;;;;;;;7.95;5.53;;;;;;;;;;5036703;28;20207;-73
2023/08/09 09:47:33;;;;;;;9.30;5.13;;;;;;;;;;5053555;28;20026;-74
2023/08/09 09:50:00;;;;;;;8.02;5.45;;;;;;;;;;5037257;28;20060;-74
2023/08/09 09:52:28;;;;;;;6.40;4.80;;;;;;;;;;5031813;28;20057;-74
2023/08/09 09:54:56;;;;;;;8.23;4.57;;;;;;;;;;5027493;28;20029;-75
2023/08/09 09:57:22;;;;;;;7.78;4.60;;;;;;;;;;5055097;28;20017;-74
2023/08/09 09:59:48;;;;;;;5.22;4.22;;;;;;;;;;5049967;28;20308;-73
2023/08/09 10:02:15;;;;;;;8.10;4.50;;;;;;;;;;5023221;28;20083;-77
2023/08/09 10:04:43;;;;;;;5.82;4.40;;;;;;;;;;5048787;28;20037;-77
2023/08/09 10:07:11;;;;;;;7.60;4.18;;;;;;;;;;5028743;28;20041;-74
2023/08/09 10:09:38;;;;;;;6.97;4.07;;;;;;;;;;5027343;28;20010;-74
2023/08/09 10:12:06;;;;;;;5.20;3.70;;;;;;;;;;5025745;28;20037;-78
2023/08/09 10:14:35;;;;;;;6.63;4.22;;;;;;;;;;5020034;28;20041;-77
2023/08/09 10:17:01;;;;;;;8.23;5.40;;;;;;;;;;5006814;28;20420;-77
2023/08/09 10:19:29;;;;;;;5.97;4.60;;;;;;;;;;5000616;28;20065;-78
2023/08/09 10:21:55;;;;;;;5.85;4.50;;;;;;;;;;5025918;28;20029;-77
2023/08/09 10:24:30;;;;;;;9.77;4.43;;;;;;;;;;5007977;28;20025;-78
2023/08/09 10:26:59;;;;;;;6.05;4.32;;;;;;;;;;5025373;28;20120;-78
2023/08/09 10:29:25;;;;;;;8.55;4.57;;;;;;;;;;4998022;28;20037;-80
2023/08/09 10:32:03;;;;;;;7.82;4.53;;;;;;;;;;5025615;28;20108;-81
2023/08/09 10:34:36;;;;;;;5.40;3.80;;;;;;;;;;5007803;28;20060;-80
2023/08/09 10:37:03;;;;;;;3.88;3.17;;;;;;;;;;5008840;28;20331;-81
2023/08/09 10:39:30;;;;;;;4.55;2.90;;;;;;;;;;5008562;28;20042;-81
2023/08/09 10:42:00;;;;;;;3.72;2.90;;;;;;;;;;4998755;28;20092;-82
2023/08/09 10:44:35;;;;;;;3.78;2.78;;;;;;;;;;5007512;28;20037;-79
2023/08/09 10:47:08;;;;;;;4.93;3.10;;;;;;;;;;4997707;28;20904;-81
2023/08/09 10:49:34;;;;;;;3.42;2.78;;;;;;;;;;4998294;28;20600;-83
2023/08/09 10:52:11;;;;;;;4.80;3.20;;;;;;;;;;5007877;28;20048;-80
2023/08/09 10:54:38;;;;;;;4.65;3.00;;;;;;;;;;5007747;28;20033;-80
2023/08/09 10:57:10;;;;;;;4.45;2.88;;;;;;;;;;5007503;28;20037;-80
2023/08/09 10:59:38;;;;;;;5.30;3.30;;;;;;;;;;5006692;28;20476;-79
2023/08/09 11:02:06;;;;;;;3.05;2.50;;;;;;;;;;5009002;28;20106;-77
2023/08/09 11:04:33;;;;;;;4.22;2.92;;;;;;;;;;5007237;28;21605;-81
2023/08/09 11:06:59;;;;;;;2.58;2.33;;;;;;;;;;5025238;28;20076;-80
2023/08/09 11:09:26;;;;;;;3.30;2.65;;;;;;;;;;5007774;28;20049;-79
2023/08/09 11:11:52;;;;;;;3.53;2.75;;;;;;;;;;5007194;28;20151;-80
2023/08/09 11:14:22;;;;;;;3.38;2.85;;;;;;;;;;4998783;28;20033;-79
2023/08/09 11:16:48;;;;;;;3.45;2.75;;;;;;;;;;4998211;28;20025;-82
2023/08/09 11:19:18;;;;;;;4.70;3.20;;;;;;;;;;5023745;28;20097;-80
2023/08/09 11:21:47;;;;;;;4.47;2.45;;;;;;;;;;5001972;28;20029;-79
2023/08/09 11:24:18;;;;;;;4.47;2.47;;;;;;;;;;5023769;28;20037;-78
2023/08/09 11:26:46;;;;;;;3.10;2.08;;;;;;;;;;5024685;28;20021;-81
2023/08/09 11:29:15;;;;;;;4.45;2.20;;;;;;;;;;5023687;28;20036;-81
2023/08/09 11:31:45;;;;;;;5.03;2.40;;;;;;;;;;5007013;28;20064;-80
2023/08/09 11:34:12;;;;;;;4.10;2.20;;;;;;;;;;5023395;28;20037;-77
2023/08/09 11:36:40;;;;;;;4.43;1.98;;;;;;;;;;4997370;28;20112;-79
2023/08/09 11:39:09;;;;;;;3.65;2.00;;;;;;;;;;5005089;28;20025;-82
2023/08/09 11:41:42;;;;;;;4.50;2.33;;;;;;;;;;5001428;28;20041;-78
2023/08/09 11:44:11;;;;;;;7.32;2.00;;;;;;;;;;4996248;28;20119;-79
2023/08/09 11:46:40;;;;;;;3.80;2.40;;;;;;;;;;5007229;28;20030;-80
2023/08/09 11:49:06;;;;;;;4.55;2.80;;;;;;;;;;5006815;28;20508;-82
2023/08/09 11:51:36;;;;;;;3.65;2.40;;;;;;;;;;5005652;28;20490;-77
2023/08/09 11:54:02;;;;;;;5.50;2.55;;;;;;;;;;5005944;28;20026;-79
2023/08/09 11:56:32;;;;;;;4.57;2.55;;;;;;;;;;4996787;28;20033;-82
2023/08/09 11:58:59;;;;;;;4.95;2.35;;;;;;;;;;4996833;28;20071;-80
2023/08/09 12:01:27;;;;;;;5.25;2.63;;;;;;;;;;5023315;28;20036;-79
2023/08/09 12:03:54;;;;;;;4.13;2.75;;;;;;;;;;5007105;28;20103;-80
2023/08/09 12:06:33;;;;;;;3.90;2.67;;;;;;;;;;5006742;28;20029;-81
2023/08/09 12:09:02;;;;;;;2.35;2.00;;;;;;;;;;5023463;28;20036;-80
2023/08/09 12:11:30;;;;;;;4.32;2.30;;;;;;;;;;5023060;28;20040;-76
2023/08/09 12:13:56;;;;;;;4.90;2.17;;;;;;;;;;5023677;28;20699;-80
2023/08/09 12:16:23;;;;;;;3.15;2.15;;;;;;;;;;5006260;28;20039;-80
2023/08/09 12:18:49;;;;;;;4.30;2.60;;;;;;;;;;5005065;28;20144;-78
2023/08/09 12:21:15;;;;;;;3.85;2.25;;;;;;;;;;4997779;28;20152;-80
2023/08/09 12:23:41;;;;;;;3.70;2.28;;;;;;;;;;5005623;28;20393;-82
2023/08/09 12:26:08;;;;;;;4.10;2.53;;;;;;;;;;4996559;28;20461;-77
2023/08/09 12:28:34;;;;;;;4.88;2.75;;;;;;;;;;5006051;28;20033;-76
2023/08/09 12:31:00;;;;;;;4.18;1.90;;;;;;;;;;5006957;28;20124;-82
2023/08/09 12:33:27;;;;;;;3.55;1.80;;;;;;;;;;5006525;28;20116;-80
2023/08/09 12:35:55;;;;;;;2.70;1.85;;;;;;;;;;5023505;28;20099;-79
2023/08/09 12:38:21;;;;;;;2.95;1.85;;;;;;;;;;5005875;28;20533;-82
2023/08/09 12:40:48;;;;;;;5.93;1.75;;;;;;;;;;4996824;28;20025;-81
2023/08/09 12:43:14;;;;;;;5.43;1.50;;;;;;;;;;5006145;28;20036;-77
2023/08/09 12:45:43;;;;;;;4.65;1.88;;;;;;;;;;5010819;28;20460;-78
2023/08/09 12:48:09;;;;;;;5.00;1.77;;;;;;;;;;5004849;28;20028;-82
2023/08/09 12:50:35;;;;;;;2.40;1.70;;;;;;;;;;5023679;28;20036;-79
2023/08/09 12:53:01;;;;;;;2.22;1.48;;;;;;;;;;4998274;28;20025;-78
2023/08/09 12:55:28;;;;;;;2.83;1.58;;;;;;;;;;5024226;28;20040;-81
2023/08/09 12:57:54;;;;;;;4.47;1.30;;;;;;;;;;5007532;28;20369;-82
2023/08/09 13:00:20;;;;;;;4.03;1.38;;;;;;;;;;4995559;28;20128;-79
2023/08/09 13:02:47;;;;;;;4.18;2.05;;;;;;;;;;5005222;28;20097;-79
2023/08/09 13:05:13;;;;;;;4.88;1.40;;;;;;;;;;5022659;28;20029;-79
2023/08/09 13:07:39;;;;;;;4.05;1.60;;;;;;;;;;5023408;28;20029;-81
2023/08/09 13:10:06;;;;;;;2.00;1.30;;;;;;;;;;5001067;28;20144;-79
2023/08/09 13:12:32;;;;;;;3.33;1.30;;;;;;;;;;5005365;28;20091;-80
2023/08/09 13:14:58;;;;;;;4.95;1.05;;;;;;;;;;4996157;28;20029;-81
2023/08/09 13:17:24;;;;;;;1.88;1.00;;;;;;;;;;5005501;28;20041;-78
2023/08/09 13:19:50;;;;;;;3.17;1.23;;;;;;;;;;4998462;28;20033;-81
2023/08/09 13:22:16;;;;;;;2.15;1.10;;;;;;;;;;5025439;28;20036;-81
2023/08/09 13:24:45;;;;;;;1.25;0.95;;;;;;;;;;5009018;28;20641;-83
2023/08/09 13:27:11;;;;;;;2.00;1.00;;;;;;;;;;5009172;28;20025;-82
2023/08/09 13:29:37;;;;;;;4.38;1.25;;;;;;;;;;5026593;28;20053;-78
2023/08/09 13:32:03;;;;;;;1.58;1.10;;;;;;;;;;5009802;28;20033;-80
2023/08/09 13:34:31;;;;;;;1.67;0.90;;;;;;;;;;4998742;28;20103;-82
2023/08/09 13:36:59;;;;;;;1.52;0.98;;;;;;;;;;4999145;28;20029;-79
2023/08/09 13:39:30;;;;;;;3.85;1.27;;;;;;;;;;5008411;28;20037;-79
2023/08/09 13:41:58;;;;;;;3.45;0.80;;;;;;;;;;5025758;28;20017;-81
2023/08/09 13:44:24;;;;;;;2.42;0.90;;;;;;;;;;4999615;28;20041;-79
2023/08/09 13:46:50;;;;;;;1.60;0.60;;;;;;;;;;5026091;28;20025;-80
2023/08/09 13:49:16;;;;;;;3.92;1.13;;;;;;;;;;5008360;28;20029;-78
2023/08/09 13:51:45;;;;;;;2.35;0.90;;;;;;;;;;5025779;28;20029;-81
2023/08/09 13:54:12;;;;;;;1.92;0.80;;;;;;;;;;5026217;28;21701;-80
2023/08/09 13:56:40;;;;;;;2.38;0.93;;;;;;;;;;5007438;28;20133;-78
2023/08/09 13:59:06;;;;;;;1.85;0.80;;;;;;;;;;5002457;28;20095;-79
2023/08/09 14:01:33;;;;;;;4.40;1.17;;;;;;;;;;5025077;28;20017;-80
2023/08/09 14:04:02;;;;;;;3.17;0.80;;;;;;;;;;5024979;28;20070;-79
2023/08/09 14:06:28;;;;;;;1.95;0.77;;;;;;;;;;5024924;28;20029;-80
2023/08/09 14:08:54;;;;;;;1.33;0.80;;;;;;;;;;5007334;28;20075;-81
2023/08/09 14:11:20;;;;;;;2.75;1.00;;;;;;;;;;5007915;28;20040;-77
2023/08/09 14:13:46;;;;;;;3.60;0.77;;;;;;;;;;4998028;28;21677;-80
2023/08/09 14:16:14;;;;;;;2.65;1.05;;;;;;;;;;5024907;28;20048;-80
2023/08/09 14:18:40;;;;;;;2.97;0.80;;;;;;;;;;5007786;28;20041;-81
2023/08/09 14:21:06;;;;;;;2.08;0.85;;;;;;;;;;5007687;28;20040;-82
2023/08/09 14:23:32;;;;;;;3.72;1.35;;;;;;;;;;5024853;28;20377;-77
2023/08/09 14:25:58;;;;;;;4.43;1.02;;;;;;;;;;5025675;28;20022;-80
2023/08/09 14:28:24;;;;;;;3.30;1.33;;;;;;;;;;5007349;28;20026;-79
2023/08/09 14:30:52;;;;;;;4.88;1.00;;;;;;;;;;5025094;28;20030;-79